createdAt,value
2023-03-25T00:00:34.218Z,27.10
2023-03-25T00:03:03.440Z,27.20
2023-03-25T00:05:32.408Z,27.20
2023-03-25T00:08:02.141Z,27.20
2023-03-25T00:10:30.850Z,27.20
2023-03-25T00:13:05.786Z,27.20
2023-03-25T00:15:35.586Z,27.30
2023-03-25T00:18:04.383Z,27.30
2023-03-25T00:20:33.441Z,27.30
2023-03-25T00:23:02.143Z,27.40
2023-03-25T00:25:30.978Z,27.50
2023-03-25T00:27:59.662Z,27.60
2023-03-25T00:30:28.527Z,27.60
2023-03-25T00:32:58.802Z,27.70
2023-03-25T00:35:27.594Z,27.70
2023-03-25T00:38:01.172Z,27.70
2023-03-25T00:40:35.831Z,27.80
2023-03-25T00:43:05.859Z,27.90
2023-03-25T00:45:35.605Z,27.90
2023-03-25T00:48:06.752Z,28.00
2023-03-25T00:50:36.210Z,28.00
2023-03-25T00:53:05.043Z,28.10
2023-03-25T00:55:33.768Z,28.20
2023-03-25T00:58:03.483Z,28.20
2023-03-25T01:00:32.272Z,28.30
2023-03-25T01:03:04.843Z,28.40
2023-03-25T01:05:34.165Z,28.50
2023-03-25T01:08:03.179Z,28.50
2023-03-25T01:10:31.926Z,28.60
2023-03-25T01:13:00.622Z,28.70
2023-03-25T01:15:29.392Z,28.70
2023-03-25T01:17:58.175Z,28.80
2023-03-25T01:20:27.708Z,28.90
2023-03-25T01:22:56.478Z,28.90
2023-03-25T01:25:25.231Z,29.00
2023-03-25T01:27:54.045Z,29.10
2023-03-25T01:30:22.788Z,29.10
2023-03-25T01:32:51.613Z,29.20
2023-03-25T01:35:20.335Z,29.20
2023-03-25T01:37:49.407Z,29.30
2023-03-25T01:40:22.047Z,29.40
2023-03-25T01:42:51.438Z,29.40
2023-03-25T01:45:27.605Z,29.50
2023-03-25T01:48:03.857Z,29.60
2023-03-25T01:50:33.572Z,29.70
2023-03-25T01:53:06.322Z,29.80
2023-03-25T01:55:35.738Z,29.80
2023-03-25T01:58:11.615Z,29.90
2023-03-25T02:00:42.314Z,30.00
2023-03-25T02:03:13.033Z,30.10
2023-03-25T02:06:00.838Z,30.20
2023-03-25T02:08:30.061Z,30.20
2023-03-25T02:10:59.091Z,30.30
2023-03-25T02:13:28.038Z,30.40
2023-03-25T02:16:17.935Z,30.50
2023-03-25T02:19:07.879Z,30.60
2023-03-25T02:22:06.968Z,30.70
2023-03-25T02:24:44.310Z,30.80
2023-03-25T02:27:28.211Z,30.80
2023-03-25T02:30:36.284Z,30.90
2023-03-25T02:33:44.215Z,31.00
2023-03-25T02:36:49.657Z,31.10
2023-03-25T02:39:40.090Z,31.20
2023-03-25T02:42:39.388Z,31.30
2023-03-25T02:45:23.027Z,31.40
2023-03-25T02:47:56.219Z,31.50
2023-03-25T02:50:32.083Z,31.60
2023-03-25T02:53:04.019Z,31.70
2023-03-25T02:55:34.429Z,31.80
2023-03-25T02:58:07.739Z,31.80
2023-03-25T03:00:39.198Z,31.90
2023-03-25T03:03:09.660Z,32.00
2023-03-25T03:05:44.854Z,32.20
2023-03-25T03:08:23.778Z,32.30
2023-03-25T03:11:13.613Z,32.40
2023-03-25T03:13:44.313Z,32.50
2023-03-25T03:16:18.194Z,32.50
2023-03-25T03:18:59.615Z,32.60
2023-03-25T03:21:42.422Z,32.60
2023-03-25T03:24:11.226Z,32.70
2023-03-25T03:26:48.850Z,32.80
2023-03-25T03:29:21.977Z,32.80
2023-03-25T03:32:05.802Z,32.80
2023-03-25T03:34:45.769Z,32.80
2023-03-25T03:37:19.843Z,32.90
2023-03-25T03:39:50.315Z,32.90
2023-03-25T03:42:27.505Z,33.00
2023-03-25T03:45:02.690Z,33.10
2023-03-25T03:47:37.764Z,33.10
2023-03-25T03:50:12.274Z,33.20
2023-03-25T03:52:48.669Z,33.20
2023-03-25T03:55:25.019Z,33.20
2023-03-25T03:58:03.246Z,33.20
2023-03-25T04:00:43.009Z,33.20
2023-03-25T04:03:39.571Z,33.30
2023-03-25T04:06:25.698Z,33.40
2023-03-25T04:09:00.531Z,33.40
2023-03-25T04:11:39.302Z,33.50
2023-03-25T04:14:09.788Z,33.50
2023-03-25T04:16:38.747Z,33.50
2023-03-25T04:19:08.233Z,33.60
2023-03-25T04:21:37.126Z,33.60
2023-03-25T04:24:09.140Z,33.60
2023-03-25T04:26:39.163Z,33.60
2023-03-25T04:29:08.692Z,33.60
2023-03-25T04:31:38.666Z,33.70
2023-03-25T04:34:07.458Z,33.70
2023-03-25T04:36:38.822Z,33.80
2023-03-25T04:39:08.612Z,33.90
2023-03-25T04:41:37.387Z,33.90
2023-03-25T04:44:08.868Z,34.10
2023-03-25T04:46:38.930Z,34.20
2023-03-25T04:49:14.909Z,34.30
2023-03-25T04:51:45.881Z,34.40
2023-03-25T04:54:15.936Z,34.50
2023-03-25T04:56:48.674Z,34.50
2023-03-25T04:59:18.406Z,34.50
2023-03-25T05:01:47.978Z,34.50
2023-03-25T05:04:18.271Z,34.60
2023-03-25T05:06:52.174Z,34.70
2023-03-25T05:09:23.574Z,34.70
2023-03-25T05:11:53.920Z,34.70
2023-03-25T05:14:23.886Z,34.70
2023-03-25T05:16:52.661Z,34.70
2023-03-25T05:19:21.540Z,34.80
2023-03-25T05:21:50.744Z,34.90
2023-03-25T05:24:20.305Z,34.80
2023-03-25T05:26:49.027Z,34.90
2023-03-25T05:29:18.311Z,34.80
2023-03-25T05:31:49.477Z,34.80
2023-03-25T05:34:18.391Z,34.90
2023-03-25T05:36:47.244Z,35.00
2023-03-25T05:39:16.264Z,35.00
2023-03-25T05:41:47.041Z,35.00
2023-03-25T05:44:15.824Z,35.00
2023-03-25T05:46:45.061Z,35.00
2023-03-25T05:49:13.784Z,35.00
2023-03-25T05:51:42.992Z,35.10
2023-03-25T05:54:12.166Z,35.10
2023-03-25T05:56:42.381Z,35.10
2023-03-25T05:59:11.423Z,35.10
2023-03-25T06:01:40.213Z,35.20
2023-03-25T06:04:11.056Z,35.30
2023-03-25T06:06:40.764Z,35.30
2023-03-25T06:09:09.880Z,35.40
2023-03-25T06:11:47.617Z,35.40
2023-03-25T06:14:16.368Z,35.40
2023-03-25T06:16:45.192Z,35.40
2023-03-25T06:19:13.903Z,35.40
2023-03-25T06:21:42.636Z,35.50
2023-03-25T06:24:11.458Z,35.60
2023-03-25T06:26:40.203Z,35.60
2023-03-25T06:29:10.091Z,35.80
2023-03-25T06:31:38.865Z,35.90
2023-03-25T06:34:07.579Z,36.00
2023-03-25T06:36:36.321Z,36.00
2023-03-25T06:39:06.773Z,36.10
2023-03-25T06:41:37.084Z,36.10
2023-03-25T06:44:06.340Z,36.10
2023-03-25T06:46:35.102Z,36.20
2023-03-25T06:49:03.909Z,36.30
2023-03-25T06:51:32.964Z,36.30
2023-03-25T06:54:01.883Z,36.30
2023-03-25T06:56:30.780Z,36.30
2023-03-25T06:58:59.580Z,36.20
2023-03-25T07:01:28.432Z,36.20
2023-03-25T07:03:57.504Z,36.30
2023-03-25T07:06:26.602Z,36.30
2023-03-25T07:08:55.314Z,36.30
2023-03-25T07:11:33.444Z,36.30
2023-03-25T07:14:02.334Z,36.20
2023-03-25T07:16:31.656Z,36.30
2023-03-25T07:19:00.478Z,36.30
2023-03-25T07:21:29.808Z,36.30
2023-03-25T07:23:58.577Z,36.40
2023-03-25T07:26:27.314Z,36.40
2023-03-25T07:28:56.095Z,36.40
2023-03-25T07:31:27.425Z,36.40
2023-03-25T07:33:56.736Z,36.50
2023-03-25T07:36:26.282Z,36.50
2023-03-25T07:38:56.977Z,36.50
2023-03-25T07:41:25.949Z,36.60
2023-03-25T07:43:54.782Z,36.60
2023-03-25T07:46:23.557Z,36.60
2023-03-25T07:48:52.266Z,36.60
2023-03-25T07:51:21.317Z,36.70
2023-03-25T07:53:51.197Z,36.60
2023-03-25T07:56:19.926Z,36.70
2023-03-25T07:58:50.612Z,36.70
2023-03-25T08:01:19.375Z,36.70
2023-03-25T08:03:48.314Z,36.70
2023-03-25T08:06:17.080Z,36.70
2023-03-25T08:08:46.523Z,36.70
2023-03-25T08:11:15.487Z,36.70
2023-03-25T08:13:44.211Z,36.60
2023-03-25T08:16:15.476Z,36.70
2023-03-25T08:18:45.964Z,36.70
2023-03-25T08:21:15.524Z,36.70
2023-03-25T08:23:45.502Z,36.70
2023-03-25T08:26:14.450Z,36.60
2023-03-25T08:28:43.151Z,36.70
2023-03-25T08:31:12.885Z,36.70
2023-03-25T08:33:42.656Z,36.60
2023-03-25T08:36:15.131Z,36.60
2023-03-25T08:38:43.520Z,36.60
2023-03-25T08:41:14.918Z,36.60
2023-03-25T08:43:45.089Z,36.60
2023-03-25T08:46:14.681Z,36.60
2023-03-25T08:48:44.931Z,36.60
2023-03-25T08:51:14.359Z,36.60
2023-03-25T08:53:43.345Z,36.60
2023-03-25T08:56:12.356Z,36.60
2023-03-25T08:58:41.719Z,36.60
2023-03-25T09:01:10.493Z,36.50
2023-03-25T09:03:41.944Z,36.60
2023-03-25T09:06:11.310Z,36.60
2023-03-25T09:08:40.034Z,36.60
2023-03-25T09:11:09.089Z,36.60
2023-03-25T09:13:37.846Z,36.50
2023-03-25T09:16:07.286Z,36.50
2023-03-25T09:18:37.739Z,36.50
2023-03-25T09:21:06.789Z,36.40
2023-03-25T09:23:35.622Z,36.40
2023-03-25T09:26:06.190Z,36.50
2023-03-25T09:28:34.968Z,36.60
2023-03-25T09:31:03.763Z,36.60
2023-03-25T09:33:32.609Z,36.50
2023-03-25T09:36:01.458Z,36.50
2023-03-25T09:38:30.637Z,36.50
2023-03-25T09:40:59.352Z,36.40
2023-03-25T09:43:32.544Z,36.40
2023-03-25T09:46:02.285Z,36.30
2023-03-25T09:48:36.624Z,36.30
2023-03-25T09:51:08.951Z,36.30
2023-03-25T09:53:41.636Z,36.30
2023-03-25T09:56:17.865Z,36.20
2023-03-25T09:58:59.525Z,36.20
2023-03-25T10:01:35.852Z,36.20
2023-03-25T10:04:43.936Z,36.20
2023-03-25T10:07:32.705Z,36.10
2023-03-25T10:10:28.600Z,36.10
2023-03-25T10:13:01.813Z,36.10
2023-03-25T10:15:35.945Z,36.00
2023-03-25T10:18:25.811Z,35.90
2023-03-25T10:21:07.201Z,35.90
2023-03-25T10:24:15.141Z,35.80
2023-03-25T10:26:44.764Z,35.80
2023-03-25T10:29:18.908Z,35.70
2023-03-25T10:31:54.609Z,35.70
2023-03-25T10:34:36.137Z,35.60
2023-03-25T10:37:13.381Z,35.50
2023-03-25T10:39:46.574Z,35.50
2023-03-25T10:42:27.574Z,35.50
2023-03-25T10:44:56.897Z,35.40
2023-03-25T10:47:34.233Z,35.40
2023-03-25T10:50:03.511Z,35.40
2023-03-25T10:52:32.701Z,35.40
2023-03-25T10:55:01.501Z,35.30
2023-03-25T10:57:32.755Z,35.30
2023-03-25T11:00:03.402Z,35.20
2023-03-25T11:02:34.948Z,35.20
2023-03-25T11:05:07.522Z,35.20
2023-03-25T11:07:41.197Z,35.20
2023-03-25T11:10:16.864Z,35.10
2023-03-25T11:12:48.812Z,35.10
2023-03-25T11:15:22.134Z,35.00
2023-03-25T11:18:01.806Z,34.90
2023-03-25T11:20:38.813Z,34.90
2023-03-25T11:23:17.871Z,34.80
2023-03-25T11:25:47.175Z,34.80
2023-03-25T11:28:36.441Z,34.70
2023-03-25T11:31:12.611Z,34.70
2023-03-25T11:33:43.174Z,34.60
2023-03-25T11:36:13.605Z,34.60
2023-03-25T11:38:42.762Z,34.50
2023-03-25T11:41:14.633Z,34.50
2023-03-25T11:43:43.730Z,34.40
2023-03-25T11:46:16.693Z,34.30
2023-03-25T11:48:48.366Z,34.20
2023-03-25T11:51:29.678Z,34.20
2023-03-25T11:54:03.937Z,34.10
2023-03-25T11:56:37.464Z,34.00
2023-03-25T11:59:19.380Z,34.00
2023-03-25T12:01:49.864Z,33.90
2023-03-25T12:04:22.007Z,33.90
2023-03-25T12:06:59.167Z,33.80
2023-03-25T12:09:31.115Z,33.80
2023-03-25T12:12:02.006Z,33.70
2023-03-25T12:14:50.846Z,33.70
2023-03-25T12:17:34.626Z,33.70
2023-03-25T12:20:30.928Z,33.70
2023-03-25T12:23:06.759Z,33.60
2023-03-25T12:25:48.936Z,33.50
2023-03-25T12:28:22.291Z,33.50
2023-03-25T12:30:59.740Z,33.50
2023-03-25T12:33:56.000Z,33.50
2023-03-25T12:36:44.775Z,33.40
2023-03-25T12:39:16.118Z,33.40
2023-03-25T12:42:11.336Z,33.40
2023-03-25T12:45:08.675Z,33.40
2023-03-25T12:47:43.884Z,33.40
2023-03-25T12:50:27.803Z,33.30
2023-03-25T12:53:29.201Z,33.20
2023-03-25T12:56:29.262Z,33.20
2023-03-25T12:59:19.079Z,33.10
2023-03-25T13:02:03.752Z,33.10
2023-03-25T13:04:50.348Z,33.00
2023-03-25T13:07:25.870Z,32.90
2023-03-25T13:10:22.279Z,32.90
2023-03-25T13:12:58.513Z,32.90
2023-03-25T13:15:38.910Z,32.90
2023-03-25T13:18:31.139Z,32.80
2023-03-25T13:21:09.038Z,32.80
2023-03-25T13:23:44.866Z,32.80
2023-03-25T13:26:19.704Z,32.80
2023-03-25T13:28:57.084Z,32.70
2023-03-25T13:31:36.336Z,32.70
2023-03-25T13:34:34.275Z,32.70
2023-03-25T13:37:26.841Z,32.60
2023-03-25T13:40:15.121Z,32.60
2023-03-25T13:43:09.164Z,32.50
2023-03-25T13:46:05.163Z,32.50
2023-03-25T13:48:42.878Z,32.50
2023-03-25T13:51:12.192Z,32.40
2023-03-25T13:53:51.111Z,32.40
2023-03-25T13:56:49.886Z,32.40
2023-03-25T13:59:40.207Z,32.30
2023-03-25T14:02:30.342Z,32.30
2023-03-25T14:05:10.345Z,32.30
2023-03-25T14:07:49.163Z,32.30
2023-03-25T14:10:41.391Z,32.30
2023-03-25T14:13:16.726Z,32.20
2023-03-25T14:16:13.644Z,32.10
2023-03-25T14:18:47.330Z,32.10
2023-03-25T14:21:25.576Z,32.10
2023-03-25T14:24:05.752Z,32.00
2023-03-25T14:26:37.131Z,32.00
2023-03-25T14:29:14.050Z,32.00
2023-03-25T14:32:03.264Z,31.90
2023-03-25T14:34:32.271Z,31.90
2023-03-25T14:37:05.816Z,31.90
2023-03-25T14:39:35.434Z,31.90
2023-03-25T14:42:09.404Z,32.00
2023-03-25T14:44:42.596Z,31.90
2023-03-25T14:47:21.673Z,31.90
2023-03-25T14:50:26.073Z,31.90
2023-03-25T14:53:05.648Z,31.90
2023-03-25T14:55:43.196Z,31.80
2023-03-25T14:58:29.181Z,31.80
2023-03-25T15:01:05.963Z,31.80
2023-03-25T15:03:39.424Z,31.80
2023-03-25T15:06:11.856Z,31.80
2023-03-25T15:08:44.382Z,31.80
2023-03-25T15:11:17.825Z,31.80
2023-03-25T15:13:53.751Z,31.80
2023-03-25T15:16:39.126Z,31.80
2023-03-25T15:19:12.355Z,31.80
2023-03-25T15:22:02.406Z,31.80
2023-03-25T15:24:35.750Z,31.70
2023-03-25T15:27:11.797Z,31.80
2023-03-25T15:29:46.033Z,31.70
2023-03-25T15:32:23.326Z,31.70
2023-03-25T15:35:13.107Z,31.70
2023-03-25T15:37:58.451Z,31.70
2023-03-25T15:40:34.199Z,31.70
2023-03-25T15:43:47.166Z,31.70
2023-03-25T15:46:28.664Z,31.70
2023-03-25T15:49:32.650Z,31.70
2023-03-25T15:52:40.538Z,31.70
2023-03-25T15:55:15.886Z,31.60
2023-03-25T15:57:49.029Z,31.60
2023-03-25T16:00:27.623Z,31.60
2023-03-25T16:03:17.240Z,31.60
2023-03-25T16:05:52.297Z,31.50
2023-03-25T16:08:33.459Z,31.50
2023-03-25T16:11:22.374Z,31.50
2023-03-25T16:14:04.436Z,31.50
2023-03-25T16:16:36.916Z,31.40
2023-03-25T16:19:10.830Z,31.40
2023-03-25T16:21:39.933Z,31.40
2023-03-25T16:24:10.843Z,31.40
2023-03-25T16:26:49.103Z,31.40
2023-03-25T16:29:24.709Z,31.40
2023-03-25T16:32:04.810Z,31.30
2023-03-25T16:34:38.907Z,31.30
2023-03-25T16:37:08.738Z,31.30
2023-03-25T16:39:39.057Z,31.30
2023-03-25T16:42:18.986Z,31.20
2023-03-25T16:44:48.474Z,31.20
2023-03-25T16:47:18.484Z,31.20
2023-03-25T16:49:50.021Z,31.20
2023-03-25T16:52:25.137Z,31.10
2023-03-25T16:54:54.760Z,31.10
2023-03-25T16:57:29.765Z,31.00
2023-03-25T17:03:47.968Z,31.00
2023-03-25T17:06:27.179Z,31.00
2023-03-25T17:08:59.832Z,30.90
2023-03-25T17:11:29.502Z,30.90
2023-03-25T17:14:08.673Z,30.90
2023-03-25T17:16:39.360Z,30.90
2023-03-25T17:19:09.043Z,30.80
2023-03-25T17:21:39.292Z,30.80
2023-03-25T17:24:24.875Z,30.80
2023-03-25T17:27:06.361Z,30.80
2023-03-25T17:29:35.136Z,30.70
2023-03-25T17:32:03.848Z,30.70
2023-03-25T17:34:38.233Z,30.70
2023-03-25T17:37:09.310Z,30.70
2023-03-25T17:39:38.159Z,30.70
2023-03-25T17:42:09.997Z,30.70
2023-03-25T17:44:41.003Z,30.70
2023-03-25T17:47:15.523Z,30.60
2023-03-25T17:49:44.493Z,30.60
2023-03-25T17:52:13.754Z,30.60
2023-03-25T17:54:42.540Z,30.60
2023-03-25T17:57:20.570Z,30.60
2023-03-25T17:59:49.980Z,30.60
2023-03-25T18:02:19.152Z,30.60
2023-03-25T18:04:48.017Z,30.60
2023-03-25T18:07:17.138Z,30.60
2023-03-25T18:09:45.899Z,30.50
2023-03-25T18:12:14.715Z,30.50
2023-03-25T18:14:44.985Z,30.50
2023-03-25T18:17:14.857Z,30.40
2023-03-25T18:19:43.639Z,30.40
2023-03-25T18:22:19.868Z,30.40
2023-03-25T18:24:48.775Z,30.40
2023-03-25T18:27:17.609Z,30.40
2023-03-25T18:29:46.365Z,30.40
2023-03-25T18:32:15.154Z,30.40
2023-03-25T18:34:44.049Z,30.40
2023-03-25T18:37:13.497Z,30.40
2023-03-25T18:39:42.202Z,30.40
2023-03-25T18:42:10.924Z,30.40
2023-03-25T18:44:39.781Z,30.30
2023-03-25T18:47:09.847Z,30.30
2023-03-25T18:49:38.952Z,30.30
2023-03-25T18:52:11.308Z,30.30
2023-03-25T18:54:40.054Z,30.20
2023-03-25T18:57:09.801Z,30.20
2023-03-25T18:59:38.633Z,30.20
2023-03-25T19:02:07.397Z,30.20
2023-03-25T19:04:39.827Z,30.20
2023-03-25T19:07:12.172Z,30.10
2023-03-25T19:09:41.286Z,30.10
2023-03-25T19:12:10.905Z,30.00
2023-03-25T19:14:39.604Z,30.00
2023-03-25T19:17:09.104Z,30.00
2023-03-25T19:19:39.184Z,29.90
2023-03-25T19:22:10.312Z,29.90
2023-03-25T19:24:39.128Z,29.90
2023-03-25T19:27:08.964Z,29.90
2023-03-25T19:29:38.903Z,29.80
2023-03-25T19:32:08.363Z,29.80
2023-03-25T19:34:37.065Z,29.80
2023-03-25T19:37:08.758Z,29.80
2023-03-25T19:39:37.467Z,29.80
2023-03-25T19:42:06.496Z,29.70
2023-03-25T19:44:35.205Z,29.70
2023-03-25T19:47:04.260Z,29.70
2023-03-25T19:49:39.164Z,29.60
2023-03-25T19:52:08.963Z,29.60
2023-03-25T19:54:37.706Z,29.50
2023-03-25T19:57:06.665Z,29.60
2023-03-25T19:59:35.446Z,29.50
2023-03-25T20:02:04.531Z,29.50
2023-03-25T20:04:35.062Z,29.50
2023-03-25T20:07:04.259Z,29.50
2023-03-25T20:09:33.058Z,29.40
2023-03-25T20:12:01.779Z,29.40
2023-03-25T20:14:30.578Z,29.40
2023-03-25T20:16:59.295Z,29.30
2023-03-25T20:19:28.147Z,29.30
2023-03-25T20:21:56.935Z,29.20
2023-03-25T20:24:25.801Z,29.10
2023-03-25T20:26:54.632Z,29.00
2023-03-25T20:29:24.934Z,29.00
2023-03-25T20:31:53.642Z,29.00
2023-03-25T20:34:23.511Z,29.00
2023-03-25T20:36:52.278Z,29.00
2023-03-25T20:39:21.438Z,29.00
2023-03-25T20:41:50.436Z,29.00
2023-03-25T20:44:19.768Z,28.90
2023-03-25T20:46:48.639Z,28.90
2023-03-25T20:49:20.916Z,28.90
2023-03-25T20:51:51.823Z,28.90
2023-03-25T20:54:20.591Z,28.90
2023-03-25T20:56:52.064Z,28.80
2023-03-25T20:59:21.574Z,28.80
2023-03-25T21:01:54.099Z,28.80
2023-03-25T21:04:24.129Z,28.80
2023-03-25T21:06:54.391Z,28.80
2023-03-25T21:09:23.243Z,28.80
2023-03-25T21:11:52.554Z,28.80
2023-03-25T21:14:21.580Z,28.80
2023-03-25T21:16:50.438Z,28.80
2023-03-25T21:19:19.964Z,28.80
2023-03-25T21:21:48.793Z,28.80
2023-03-25T21:24:22.315Z,28.70
2023-03-25T21:26:51.180Z,28.70
2023-03-25T21:29:21.881Z,28.60
2023-03-25T21:31:50.653Z,28.60
2023-03-25T21:34:19.507Z,28.60
2023-03-25T21:36:48.177Z,28.60
2023-03-25T21:39:17.016Z,28.60
2023-03-25T21:41:45.741Z,28.60
2023-03-25T21:44:16.891Z,28.50
2023-03-25T21:46:45.591Z,28.50
2023-03-25T21:49:14.864Z,28.50
2023-03-25T21:51:45.195Z,28.40
2023-03-25T21:54:16.339Z,28.40
2023-03-25T21:56:45.090Z,28.50
2023-03-25T21:59:16.642Z,28.50
2023-03-25T22:01:46.385Z,28.50
2023-03-25T22:04:15.186Z,28.50
2023-03-25T22:06:43.909Z,28.50
2023-03-25T22:09:12.654Z,28.50
2023-03-25T22:11:41.424Z,28.50
2023-03-25T22:14:10.700Z,28.50
2023-03-25T22:16:39.631Z,28.50
2023-03-25T22:19:08.802Z,28.50
2023-03-25T22:21:38.486Z,28.40
2023-03-25T22:24:08.958Z,28.40
2023-03-25T22:26:40.706Z,28.30
2023-03-25T22:29:10.898Z,28.30
2023-03-25T22:31:41.240Z,28.20
2023-03-25T22:34:13.378Z,28.20
2023-03-25T22:36:47.154Z,28.10
2023-03-25T22:39:15.923Z,28.00
2023-03-25T22:41:44.964Z,28.00
2023-03-25T22:44:15.931Z,27.90
2023-03-25T22:46:45.131Z,27.90
2023-03-25T22:49:15.254Z,27.80
2023-03-25T22:51:44.342Z,27.80
2023-03-25T22:54:13.135Z,27.80
2023-03-25T22:56:44.422Z,27.80
2023-03-25T22:59:15.289Z,27.80
2023-03-25T23:01:44.427Z,27.80
2023-03-25T23:04:14.059Z,27.80
2023-03-25T23:06:45.285Z,27.70
2023-03-25T23:09:37.455Z,27.70
2023-03-25T23:12:06.450Z,27.80
2023-03-25T23:14:35.289Z,27.80
2023-03-25T23:17:04.094Z,27.90
2023-03-25T23:19:32.860Z,27.90
2023-03-25T23:22:03.386Z,27.90
2023-03-25T23:24:35.101Z,27.90
2023-03-25T23:27:06.100Z,27.90
2023-03-25T23:29:37.058Z,27.90
2023-03-25T23:32:07.872Z,27.90
2023-03-25T23:34:36.878Z,27.80
2023-03-25T23:37:08.490Z,27.80
2023-03-25T23:39:37.870Z,27.80
2023-03-25T23:42:06.718Z,27.80
2023-03-25T23:44:35.619Z,27.70
2023-03-25T23:47:04.897Z,27.70
2023-03-25T23:49:35.374Z,27.70
2023-03-25T23:52:04.101Z,27.70
2023-03-25T23:54:34.465Z,27.70
2023-03-25T23:57:03.194Z,27.80
2023-03-25T23:59:31.968Z,27.70
